<?xml version="1.0" encoding="UTF-8" standalone="no" ?>
<gpx xmlns="http://www.topografix.com/GPX/1/1" xmlns:xsi="http://www.w3.org/2001/XMLSchema-instance" xsi:schemaLocation="http://www.topografix.com/GPX/1/1 http://www.topografix.com/GPX/1/1/gpx.xsd" version="1.1" creator="VisuGPX - https://www.visugpx.com">
  <metadata>
    <name>Cool down</name>
  </metadata>
  <trk>
    <name><![CDATA[Cool down_1]]></name>
    <trkseg>
      <trkpt lat="46.07501" lon="6.75117">
        <ele>905.8</ele>
        <time>2023-08-13T10:07:18Z</time>
      </trkpt>
      <trkpt lat="46.07501" lon="6.75117">
        <ele>905.8</ele>
        <time>2023-08-13T10:07:26Z</time>
      </trkpt>
      <trkpt lat="46.07505" lon="6.75129">
        <ele>904</ele>
        <time>2023-08-13T10:07:27Z</time>
      </trkpt>
      <trkpt lat="46.07522" lon="6.75145">
        <ele>899.8</ele>
        <time>2023-08-13T10:07:36Z</time>
      </trkpt>
      <trkpt lat="46.07537" lon="6.7513">
        <ele>896.7</ele>
        <time>2023-08-13T10:07:44Z</time>
      </trkpt>
      <trkpt lat="46.07547" lon="6.75106">
        <ele>894</ele>
        <time>2023-08-13T10:07:50Z</time>
      </trkpt>
      <trkpt lat="46.07563" lon="6.7509">
        <ele>891.1</ele>
        <time>2023-08-13T10:07:58Z</time>
      </trkpt>
      <trkpt lat="46.0758" lon="6.75078">
        <ele>888.1</ele>
        <time>2023-08-13T10:08:05Z</time>
      </trkpt>
      <trkpt lat="46.07593" lon="6.75059">
        <ele>885.1</ele>
        <time>2023-08-13T10:08:13Z</time>
      </trkpt>
      <trkpt lat="46.07603" lon="6.75036">
        <ele>881.6</ele>
        <time>2023-08-13T10:08:21Z</time>
      </trkpt>
      <trkpt lat="46.07613" lon="6.75014">
        <ele>878</ele>
        <time>2023-08-13T10:08:28Z</time>
      </trkpt>
      <trkpt lat="46.07623" lon="6.74992">
        <ele>874</ele>
        <time>2023-08-13T10:08:36Z</time>
      </trkpt>
      <trkpt lat="46.07617" lon="6.74967">
        <ele>870.2</ele>
        <time>2023-08-13T10:08:45Z</time>
      </trkpt>
      <trkpt lat="46.07616" lon="6.74942">
        <ele>867.1</ele>
        <time>2023-08-13T10:08:52Z</time>
      </trkpt>
      <trkpt lat="46.07622" lon="6.74917">
        <ele>864</ele>
        <time>2023-08-13T10:08:59Z</time>
      </trkpt>
      <trkpt lat="46.07631" lon="6.74893">
        <ele>860.7</ele>
        <time>2023-08-13T10:09:08Z</time>
      </trkpt>
      <trkpt lat="46.07643" lon="6.7487">
        <ele>857.2</ele>
        <time>2023-08-13T10:09:16Z</time>
      </trkpt>
      <trkpt lat="46.07647" lon="6.74845">
        <ele>854</ele>
        <time>2023-08-13T10:09:23Z</time>
      </trkpt>
      <trkpt lat="46.07649" lon="6.74818">
        <ele>850.3</ele>
        <time>2023-08-13T10:09:32Z</time>
      </trkpt>
      <trkpt lat="46.07634" lon="6.74803">
        <ele>846.3</ele>
        <time>2023-08-13T10:09:40Z</time>
      </trkpt>
      <trkpt lat="46.07615" lon="6.74805">
        <ele>842.3</ele>
        <time>2023-08-13T10:09:48Z</time>
      </trkpt>
      <trkpt lat="46.07598" lon="6.74818">
        <ele>838.6</ele>
        <time>2023-08-13T10:09:57Z</time>
      </trkpt>
      <trkpt lat="46.07582" lon="6.7483">
        <ele>835.6</ele>
        <time>2023-08-13T10:10:05Z</time>
      </trkpt>
      <trkpt lat="46.07577" lon="6.74839">
        <ele>834.4</ele>
        <time>2023-08-13T10:10:09Z</time>
      </trkpt>
      <trkpt lat="46.07557" lon="6.74849">
        <ele>831</ele>
        <time>2023-08-13T10:10:18Z</time>
      </trkpt>
      <trkpt lat="46.07541" lon="6.74864">
        <ele>827.9</ele>
        <time>2023-08-13T10:10:27Z</time>
      </trkpt>
      <trkpt lat="46.07526" lon="6.74881">
        <ele>825</ele>
        <time>2023-08-13T10:10:34Z</time>
      </trkpt>
      <trkpt lat="46.07511" lon="6.74895">
        <ele>822.3</ele>
        <time>2023-08-13T10:10:41Z</time>
      </trkpt>
      <trkpt lat="46.07493" lon="6.74907">
        <ele>819.7</ele>
        <time>2023-08-13T10:10:49Z</time>
      </trkpt>
      <trkpt lat="46.07484" lon="6.74914">
        <ele>815.4</ele>
        <time>2023-08-13T10:10:54Z</time>
      </trkpt>
      <trkpt lat="46.07476" lon="6.74908">
        <ele>813.8</ele>
        <time>2023-08-13T10:10:58Z</time>
      </trkpt>
      <trkpt lat="46.07472" lon="6.74881">
        <ele>810</ele>
        <time>2023-08-13T10:11:06Z</time>
      </trkpt>
      <trkpt lat="46.07476" lon="6.74854">
        <ele>805.7</ele>
        <time>2023-08-13T10:11:16Z</time>
      </trkpt>
      <trkpt lat="46.0748" lon="6.74828">
        <ele>801.5</ele>
        <time>2023-08-13T10:11:23Z</time>
      </trkpt>
      <trkpt lat="46.07484" lon="6.74802">
        <ele>797.4</ele>
        <time>2023-08-13T10:11:29Z</time>
      </trkpt>
      <trkpt lat="46.07487" lon="6.74775">
        <ele>793.5</ele>
        <time>2023-08-13T10:11:34Z</time>
      </trkpt>
      <trkpt lat="46.07495" lon="6.7475">
        <ele>789.8</ele>
        <time>2023-08-13T10:11:40Z</time>
      </trkpt>
      <trkpt lat="46.07503" lon="6.74726">
        <ele>786</ele>
        <time>2023-08-13T10:11:49Z</time>
      </trkpt>
      <trkpt lat="46.07505" lon="6.747">
        <ele>782.1</ele>
        <time>2023-08-13T10:11:56Z</time>
      </trkpt>
      <trkpt lat="46.07508" lon="6.74673">
        <ele>778.4</ele>
        <time>2023-08-13T10:12:02Z</time>
      </trkpt>
      <trkpt lat="46.07502" lon="6.74646">
        <ele>774.7</ele>
        <time>2023-08-13T10:12:10Z</time>
      </trkpt>
      <trkpt lat="46.07502" lon="6.74618">
        <ele>770.3</ele>
        <time>2023-08-13T10:12:20Z</time>
      </trkpt>
      <trkpt lat="46.07506" lon="6.74591">
        <ele>766.3</ele>
        <time>2023-08-13T10:12:30Z</time>
      </trkpt>
      <trkpt lat="46.07509" lon="6.74566">
        <ele>763.1</ele>
        <time>2023-08-13T10:12:39Z</time>
      </trkpt>
      <trkpt lat="46.0751" lon="6.74552">
        <ele>761.1</ele>
        <time>2023-08-13T10:13:07Z</time>
      </trkpt>
      <trkpt lat="46.0751" lon="6.7455">
        <ele>760.8</ele>
        <time>2023-08-13T10:13:08Z</time>
      </trkpt>
      <trkpt lat="46.07511" lon="6.74524">
        <ele>756.8</ele>
        <time>2023-08-13T10:13:16Z</time>
      </trkpt>
      <trkpt lat="46.07516" lon="6.74499">
        <ele>752.6</ele>
        <time>2023-08-13T10:13:27Z</time>
      </trkpt>
      <trkpt lat="46.07527" lon="6.74476">
        <ele>748.2</ele>
        <time>2023-08-13T10:13:36Z</time>
      </trkpt>
      <trkpt lat="46.07543" lon="6.74457">
        <ele>744.2</ele>
        <time>2023-08-13T10:13:43Z</time>
      </trkpt>
      <trkpt lat="46.07555" lon="6.74437">
        <ele>740.7</ele>
        <time>2023-08-13T10:13:50Z</time>
      </trkpt>
      <trkpt lat="46.07566" lon="6.74416">
        <ele>737.3</ele>
        <time>2023-08-13T10:13:58Z</time>
      </trkpt>
      <trkpt lat="46.07583" lon="6.74402">
        <ele>733.3</ele>
        <time>2023-08-13T10:14:06Z</time>
      </trkpt>
      <trkpt lat="46.07592" lon="6.74378">
        <ele>729.4</ele>
        <time>2023-08-13T10:14:15Z</time>
      </trkpt>
      <trkpt lat="46.07595" lon="6.74356">
        <ele>726.2</ele>
        <time>2023-08-13T10:14:22Z</time>
      </trkpt>
      <trkpt lat="46.07577" lon="6.74353">
        <ele>723</ele>
        <time>2023-08-13T10:14:31Z</time>
      </trkpt>
      <trkpt lat="46.07558" lon="6.74351">
        <ele>719.3</ele>
        <time>2023-08-13T10:14:41Z</time>
      </trkpt>
      <trkpt lat="46.07544" lon="6.74331">
        <ele>716.4</ele>
        <time>2023-08-13T10:14:49Z</time>
      </trkpt>
      <trkpt lat="46.07536" lon="6.74307">
        <ele>714.5</ele>
        <time>2023-08-13T10:14:55Z</time>
      </trkpt>
      <trkpt lat="46.07527" lon="6.74283">
        <ele>713.3</ele>
        <time>2023-08-13T10:15:02Z</time>
      </trkpt>
      <trkpt lat="46.07525" lon="6.74273">
        <ele>713</ele>
        <time>2023-08-13T10:15:06Z</time>
      </trkpt>
      <trkpt lat="46.07537" lon="6.7425">
        <ele>712.5</ele>
        <time>2023-08-13T10:15:14Z</time>
      </trkpt>
      <trkpt lat="46.07544" lon="6.74223">
        <ele>712.4</ele>
        <time>2023-08-13T10:15:21Z</time>
      </trkpt>
      <trkpt lat="46.07543" lon="6.74195">
        <ele>712.2</ele>
        <time>2023-08-13T10:15:29Z</time>
      </trkpt>
      <trkpt lat="46.07544" lon="6.7417">
        <ele>712.1</ele>
        <time>2023-08-13T10:15:36Z</time>
      </trkpt>
      <trkpt lat="46.07553" lon="6.74145">
        <ele>711.9</ele>
        <time>2023-08-13T10:15:43Z</time>
      </trkpt>
      <trkpt lat="46.0756" lon="6.74121">
        <ele>711.8</ele>
        <time>2023-08-13T10:15:49Z</time>
      </trkpt>
      <trkpt lat="46.07562" lon="6.74092">
        <ele>711.6</ele>
        <time>2023-08-13T10:15:57Z</time>
      </trkpt>
      <trkpt lat="46.07565" lon="6.74064">
        <ele>711.4</ele>
        <time>2023-08-13T10:16:04Z</time>
      </trkpt>
      <trkpt lat="46.07572" lon="6.74038">
        <ele>711.2</ele>
        <time>2023-08-13T10:16:10Z</time>
      </trkpt>
      <trkpt lat="46.07583" lon="6.74017">
        <ele>711.1</ele>
        <time>2023-08-13T10:16:16Z</time>
      </trkpt>
      <trkpt lat="46.07594" lon="6.73992">
        <ele>710.9</ele>
        <time>2023-08-13T10:16:23Z</time>
      </trkpt>
      <trkpt lat="46.07604" lon="6.73966">
        <ele>710.7</ele>
        <time>2023-08-13T10:16:30Z</time>
      </trkpt>
      <trkpt lat="46.07612" lon="6.7394">
        <ele>710.5</ele>
        <time>2023-08-13T10:16:37Z</time>
      </trkpt>
      <trkpt lat="46.07623" lon="6.73917">
        <ele>710.3</ele>
        <time>2023-08-13T10:16:42Z</time>
      </trkpt>
      <trkpt lat="46.07631" lon="6.73889">
        <ele>710.1</ele>
        <time>2023-08-13T10:16:48Z</time>
      </trkpt>
      <trkpt lat="46.07636" lon="6.73862">
        <ele>709.9</ele>
        <time>2023-08-13T10:16:55Z</time>
      </trkpt>
      <trkpt lat="46.07643" lon="6.73837">
        <ele>709.7</ele>
        <time>2023-08-13T10:17:01Z</time>
      </trkpt>
      <trkpt lat="46.0765" lon="6.73813">
        <ele>709.6</ele>
        <time>2023-08-13T10:17:07Z</time>
      </trkpt>
      <trkpt lat="46.07651" lon="6.73787">
        <ele>709.5</ele>
        <time>2023-08-13T10:17:13Z</time>
      </trkpt>
      <trkpt lat="46.07648" lon="6.73758">
        <ele>709.3</ele>
        <time>2023-08-13T10:17:20Z</time>
      </trkpt>
      <trkpt lat="46.07645" lon="6.7373">
        <ele>709</ele>
        <time>2023-08-13T10:17:26Z</time>
      </trkpt>
      <trkpt lat="46.07645" lon="6.73702">
        <ele>708.8</ele>
        <time>2023-08-13T10:17:32Z</time>
      </trkpt>
      <trkpt lat="46.07645" lon="6.73675">
        <ele>708.5</ele>
        <time>2023-08-13T10:17:38Z</time>
      </trkpt>
      <trkpt lat="46.07648" lon="6.73649">
        <ele>708.3</ele>
        <time>2023-08-13T10:17:44Z</time>
      </trkpt>
      <trkpt lat="46.07656" lon="6.73621">
        <ele>708.2</ele>
        <time>2023-08-13T10:17:51Z</time>
      </trkpt>
      <trkpt lat="46.07666" lon="6.73597">
        <ele>708</ele>
        <time>2023-08-13T10:17:58Z</time>
      </trkpt>
      <trkpt lat="46.07679" lon="6.73574">
        <ele>707.9</ele>
        <time>2023-08-13T10:18:05Z</time>
      </trkpt>
      <trkpt lat="46.0769" lon="6.7355">
        <ele>707.9</ele>
        <time>2023-08-13T10:18:12Z</time>
      </trkpt>
      <trkpt lat="46.07702" lon="6.73526">
        <ele>707.9</ele>
        <time>2023-08-13T10:18:19Z</time>
      </trkpt>
      <trkpt lat="46.07719" lon="6.73515">
        <ele>708</ele>
        <time>2023-08-13T10:18:25Z</time>
      </trkpt>
      <trkpt lat="46.07734" lon="6.73496">
        <ele>708.1</ele>
        <time>2023-08-13T10:18:32Z</time>
      </trkpt>
      <trkpt lat="46.07743" lon="6.73472">
        <ele>708.2</ele>
        <time>2023-08-13T10:18:39Z</time>
      </trkpt>
      <trkpt lat="46.07758" lon="6.73457">
        <ele>708.3</ele>
        <time>2023-08-13T10:18:45Z</time>
      </trkpt>
      <trkpt lat="46.07774" lon="6.73441">
        <ele>708.4</ele>
        <time>2023-08-13T10:18:52Z</time>
      </trkpt>
      <trkpt lat="46.07792" lon="6.73425">
        <ele>708.5</ele>
        <time>2023-08-13T10:18:59Z</time>
      </trkpt>
      <trkpt lat="46.07809" lon="6.73409">
        <ele>708.6</ele>
        <time>2023-08-13T10:19:06Z</time>
      </trkpt>
      <trkpt lat="46.07825" lon="6.73393">
        <ele>708.8</ele>
        <time>2023-08-13T10:19:13Z</time>
      </trkpt>
      <trkpt lat="46.07841" lon="6.73378">
        <ele>709.2</ele>
        <time>2023-08-13T10:19:20Z</time>
      </trkpt>
      <trkpt lat="46.07857" lon="6.73362">
        <ele>709.5</ele>
        <time>2023-08-13T10:19:27Z</time>
      </trkpt>
      <trkpt lat="46.07872" lon="6.73346">
        <ele>710</ele>
        <time>2023-08-13T10:19:34Z</time>
      </trkpt>
      <trkpt lat="46.07887" lon="6.73329">
        <ele>710.4</ele>
        <time>2023-08-13T10:19:41Z</time>
      </trkpt>
      <trkpt lat="46.07903" lon="6.73315">
        <ele>710.9</ele>
        <time>2023-08-13T10:19:48Z</time>
      </trkpt>
      <trkpt lat="46.07919" lon="6.73301">
        <ele>711.3</ele>
        <time>2023-08-13T10:19:55Z</time>
      </trkpt>
      <trkpt lat="46.07936" lon="6.73286">
        <ele>712</ele>
        <time>2023-08-13T10:20:02Z</time>
      </trkpt>
      <trkpt lat="46.07951" lon="6.73271">
        <ele>712.7</ele>
        <time>2023-08-13T10:20:09Z</time>
      </trkpt>
      <trkpt lat="46.07966" lon="6.73255">
        <ele>713.5</ele>
        <time>2023-08-13T10:20:16Z</time>
      </trkpt>
      <trkpt lat="46.07982" lon="6.7324">
        <ele>714.3</ele>
        <time>2023-08-13T10:20:24Z</time>
      </trkpt>
      <trkpt lat="46.07997" lon="6.73226">
        <ele>715</ele>
        <time>2023-08-13T10:20:31Z</time>
      </trkpt>
      <trkpt lat="46.08013" lon="6.73212">
        <ele>715.7</ele>
        <time>2023-08-13T10:20:38Z</time>
      </trkpt>
      <trkpt lat="46.0803" lon="6.73197">
        <ele>716.4</ele>
        <time>2023-08-13T10:20:46Z</time>
      </trkpt>
      <trkpt lat="46.08047" lon="6.73183">
        <ele>716.9</ele>
        <time>2023-08-13T10:20:53Z</time>
      </trkpt>
      <trkpt lat="46.08062" lon="6.73165">
        <ele>716.9</ele>
        <time>2023-08-13T10:21:00Z</time>
      </trkpt>
      <trkpt lat="46.08077" lon="6.73148">
        <ele>716.7</ele>
        <time>2023-08-13T10:21:07Z</time>
      </trkpt>
      <trkpt lat="46.08094" lon="6.73134">
        <ele>716.4</ele>
        <time>2023-08-13T10:21:14Z</time>
      </trkpt>
      <trkpt lat="46.08112" lon="6.73125">
        <ele>716</ele>
        <time>2023-08-13T10:21:21Z</time>
      </trkpt>
      <trkpt lat="46.08128" lon="6.73111">
        <ele>715.7</ele>
        <time>2023-08-13T10:21:28Z</time>
      </trkpt>
      <trkpt lat="46.08145" lon="6.73101">
        <ele>715.5</ele>
        <time>2023-08-13T10:21:35Z</time>
      </trkpt>
      <trkpt lat="46.08165" lon="6.73093">
        <ele>715.2</ele>
        <time>2023-08-13T10:21:43Z</time>
      </trkpt>
      <trkpt lat="46.08183" lon="6.73083">
        <ele>715</ele>
        <time>2023-08-13T10:21:50Z</time>
      </trkpt>
      <trkpt lat="46.08202" lon="6.73073">
        <ele>714.6</ele>
        <time>2023-08-13T10:21:57Z</time>
      </trkpt>
      <trkpt lat="46.08218" lon="6.73058">
        <ele>714.2</ele>
        <time>2023-08-13T10:22:04Z</time>
      </trkpt>
      <trkpt lat="46.08234" lon="6.73044">
        <ele>713.8</ele>
        <time>2023-08-13T10:22:11Z</time>
      </trkpt>
      <trkpt lat="46.08251" lon="6.73028">
        <ele>713.3</ele>
        <time>2023-08-13T10:22:18Z</time>
      </trkpt>
      <trkpt lat="46.08262" lon="6.73008">
        <ele>712.9</ele>
        <time>2023-08-13T10:22:25Z</time>
      </trkpt>
      <trkpt lat="46.08267" lon="6.72983">
        <ele>712.5</ele>
        <time>2023-08-13T10:22:32Z</time>
      </trkpt>
      <trkpt lat="46.08271" lon="6.72955">
        <ele>712.1</ele>
        <time>2023-08-13T10:22:40Z</time>
      </trkpt>
      <trkpt lat="46.08276" lon="6.72926">
        <ele>711.8</ele>
        <time>2023-08-13T10:22:48Z</time>
      </trkpt>
      <trkpt lat="46.08279" lon="6.72898">
        <ele>711.3</ele>
        <time>2023-08-13T10:22:55Z</time>
      </trkpt>
      <trkpt lat="46.08281" lon="6.7287">
        <ele>710.8</ele>
        <time>2023-08-13T10:23:02Z</time>
      </trkpt>
      <trkpt lat="46.08286" lon="6.72845">
        <ele>710.4</ele>
        <time>2023-08-13T10:23:09Z</time>
      </trkpt>
      <trkpt lat="46.08297" lon="6.72823">
        <ele>709.8</ele>
        <time>2023-08-13T10:23:16Z</time>
      </trkpt>
      <trkpt lat="46.08302" lon="6.72797">
        <ele>709.4</ele>
        <time>2023-08-13T10:23:24Z</time>
      </trkpt>
      <trkpt lat="46.08307" lon="6.72772">
        <ele>709.1</ele>
        <time>2023-08-13T10:23:32Z</time>
      </trkpt>
      <trkpt lat="46.08316" lon="6.72747">
        <ele>708.7</ele>
        <time>2023-08-13T10:23:40Z</time>
      </trkpt>
      <trkpt lat="46.0833" lon="6.7272">
        <ele>708.3</ele>
        <time>2023-08-13T10:23:48Z</time>
      </trkpt>
      <trkpt lat="46.08338" lon="6.72637">
        <ele>707.5</ele>
        <time>2023-08-13T10:28:04Z</time>
      </trkpt>
      <trkpt lat="46.08337" lon="6.72633">
        <ele>707.5</ele>
        <time>2023-08-13T10:28:06Z</time>
      </trkpt>
      <trkpt lat="46.08339" lon="6.72608">
        <ele>707.1</ele>
        <time>2023-08-13T10:28:15Z</time>
      </trkpt>
      <trkpt lat="46.0835" lon="6.72585">
        <ele>706.8</ele>
        <time>2023-08-13T10:28:25Z</time>
      </trkpt>
      <trkpt lat="46.0836" lon="6.72562">
        <ele>706.6</ele>
        <time>2023-08-13T10:28:34Z</time>
      </trkpt>
      <trkpt lat="46.08371" lon="6.7254">
        <ele>706.5</ele>
        <time>2023-08-13T10:28:43Z</time>
      </trkpt>
      <trkpt lat="46.08361" lon="6.72518">
        <ele>705.7</ele>
        <time>2023-08-13T10:28:54Z</time>
      </trkpt>
      <trkpt lat="46.08342" lon="6.72506">
        <ele>705</ele>
        <time>2023-08-13T10:29:02Z</time>
      </trkpt>
      <trkpt lat="46.08325" lon="6.72495">
        <ele>704.5</ele>
        <time>2023-08-13T10:29:08Z</time>
      </trkpt>
      <trkpt lat="46.08307" lon="6.72479">
        <ele>703.9</ele>
        <time>2023-08-13T10:29:16Z</time>
      </trkpt>
      <trkpt lat="46.08289" lon="6.7247">
        <ele>703.7</ele>
        <time>2023-08-13T10:29:22Z</time>
      </trkpt>
      <trkpt lat="46.08274" lon="6.72453">
        <ele>703.4</ele>
        <time>2023-08-13T10:29:30Z</time>
      </trkpt>
      <trkpt lat="46.08257" lon="6.7244">
        <ele>703</ele>
        <time>2023-08-13T10:29:37Z</time>
      </trkpt>
      <trkpt lat="46.0824" lon="6.72429">
        <ele>702.6</ele>
        <time>2023-08-13T10:29:44Z</time>
      </trkpt>
      <trkpt lat="46.08225" lon="6.72416">
        <ele>702.3</ele>
        <time>2023-08-13T10:29:51Z</time>
      </trkpt>
      <trkpt lat="46.0821" lon="6.724">
        <ele>702</ele>
        <time>2023-08-13T10:29:58Z</time>
      </trkpt>
      <trkpt lat="46.08193" lon="6.72386">
        <ele>701.7</ele>
        <time>2023-08-13T10:30:05Z</time>
      </trkpt>
      <trkpt lat="46.08177" lon="6.72372">
        <ele>701.4</ele>
        <time>2023-08-13T10:30:12Z</time>
      </trkpt>
      <trkpt lat="46.0816" lon="6.72357">
        <ele>701.2</ele>
        <time>2023-08-13T10:30:19Z</time>
      </trkpt>
      <trkpt lat="46.08145" lon="6.72341">
        <ele>701</ele>
        <time>2023-08-13T10:30:27Z</time>
      </trkpt>
      <trkpt lat="46.08131" lon="6.72324">
        <ele>700.8</ele>
        <time>2023-08-13T10:30:34Z</time>
      </trkpt>
      <trkpt lat="46.08116" lon="6.72307">
        <ele>700.6</ele>
        <time>2023-08-13T10:30:41Z</time>
      </trkpt>
      <trkpt lat="46.081" lon="6.72293">
        <ele>700.4</ele>
        <time>2023-08-13T10:30:48Z</time>
      </trkpt>
      <trkpt lat="46.08084" lon="6.72275">
        <ele>700.3</ele>
        <time>2023-08-13T10:30:55Z</time>
      </trkpt>
      <trkpt lat="46.08069" lon="6.7226">
        <ele>700.1</ele>
        <time>2023-08-13T10:31:01Z</time>
      </trkpt>
      <trkpt lat="46.08054" lon="6.72244">
        <ele>699.9</ele>
        <time>2023-08-13T10:31:07Z</time>
      </trkpt>
      <trkpt lat="46.08037" lon="6.7223">
        <ele>699.8</ele>
        <time>2023-08-13T10:31:13Z</time>
      </trkpt>
      <trkpt lat="46.0802" lon="6.72213">
        <ele>699.7</ele>
        <time>2023-08-13T10:31:20Z</time>
      </trkpt>
      <trkpt lat="46.08004" lon="6.72196">
        <ele>699.6</ele>
        <time>2023-08-13T10:31:26Z</time>
      </trkpt>
      <trkpt lat="46.07987" lon="6.72184">
        <ele>699.5</ele>
        <time>2023-08-13T10:31:31Z</time>
      </trkpt>
      <trkpt lat="46.07971" lon="6.72168">
        <ele>699.5</ele>
        <time>2023-08-13T10:31:37Z</time>
      </trkpt>
      <trkpt lat="46.07955" lon="6.72153">
        <ele>699.6</ele>
        <time>2023-08-13T10:31:43Z</time>
      </trkpt>
      <trkpt lat="46.07938" lon="6.7214">
        <ele>699.6</ele>
        <time>2023-08-13T10:31:49Z</time>
      </trkpt>
      <trkpt lat="46.07921" lon="6.72125">
        <ele>699.5</ele>
        <time>2023-08-13T10:31:55Z</time>
      </trkpt>
      <trkpt lat="46.07905" lon="6.7211">
        <ele>699.5</ele>
        <time>2023-08-13T10:32:01Z</time>
      </trkpt>
      <trkpt lat="46.07887" lon="6.72095">
        <ele>699.5</ele>
        <time>2023-08-13T10:32:07Z</time>
      </trkpt>
      <trkpt lat="46.07872" lon="6.7208">
        <ele>699.5</ele>
        <time>2023-08-13T10:32:12Z</time>
      </trkpt>
      <trkpt lat="46.07856" lon="6.72067">
        <ele>699.5</ele>
        <time>2023-08-13T10:32:18Z</time>
      </trkpt>
      <trkpt lat="46.07839" lon="6.72059">
        <ele>699.4</ele>
        <time>2023-08-13T10:32:24Z</time>
      </trkpt>
      <trkpt lat="46.07821" lon="6.72045">
        <ele>699.4</ele>
        <time>2023-08-13T10:32:30Z</time>
      </trkpt>
      <trkpt lat="46.07805" lon="6.72029">
        <ele>699.4</ele>
        <time>2023-08-13T10:32:36Z</time>
      </trkpt>
      <trkpt lat="46.07788" lon="6.72014">
        <ele>699.4</ele>
        <time>2023-08-13T10:32:42Z</time>
      </trkpt>
      <trkpt lat="46.07773" lon="6.71998">
        <ele>699.4</ele>
        <time>2023-08-13T10:32:48Z</time>
      </trkpt>
      <trkpt lat="46.07757" lon="6.71982">
        <ele>699.5</ele>
        <time>2023-08-13T10:32:54Z</time>
      </trkpt>
      <trkpt lat="46.07741" lon="6.71966">
        <ele>699.7</ele>
        <time>2023-08-13T10:33:00Z</time>
      </trkpt>
      <trkpt lat="46.07726" lon="6.71948">
        <ele>699.7</ele>
        <time>2023-08-13T10:33:06Z</time>
      </trkpt>
      <trkpt lat="46.07714" lon="6.71925">
        <ele>699.5</ele>
        <time>2023-08-13T10:33:12Z</time>
      </trkpt>
      <trkpt lat="46.07718" lon="6.719">
        <ele>698.4</ele>
        <time>2023-08-13T10:33:18Z</time>
      </trkpt>
      <trkpt lat="46.07729" lon="6.71877">
        <ele>697.2</ele>
        <time>2023-08-13T10:33:23Z</time>
      </trkpt>
      <trkpt lat="46.0774" lon="6.71853">
        <ele>696.7</ele>
        <time>2023-08-13T10:33:29Z</time>
      </trkpt>
      <trkpt lat="46.07751" lon="6.71829">
        <ele>696.3</ele>
        <time>2023-08-13T10:33:35Z</time>
      </trkpt>
      <trkpt lat="46.0776" lon="6.71806">
        <ele>696.1</ele>
        <time>2023-08-13T10:33:41Z</time>
      </trkpt>
      <trkpt lat="46.07771" lon="6.71781">
        <ele>695.9</ele>
        <time>2023-08-13T10:33:48Z</time>
      </trkpt>
      <trkpt lat="46.07779" lon="6.71758">
        <ele>695.7</ele>
        <time>2023-08-13T10:33:55Z</time>
      </trkpt>
    </trkseg>
  </trk>
</gpx>